sensor_id;sensor_type;location;lat;lon;timestamp;pressure;altitude;pressure_sealevel;temperature;humidity
17607;BME280;69222;52.242;20.980;2024-03-07T00:01:06;101374.28;;;3.81;59.04
17607;BME280;69222;52.242;20.980;2024-03-07T00:03:34;101372.75;;;3.86;58.65
17607;BME280;69222;52.242;20.980;2024-03-07T00:06:02;101365.88;;;3.84;58.14
17607;BME280;69222;52.242;20.980;2024-03-07T00:08:31;101371.81;;;3.83;58.08
17607;BME280;69222;52.242;20.980;2024-03-07T00:10:59;101377.53;;;3.77;58.26
17607;BME280;69222;52.242;20.980;2024-03-07T00:13:29;101378.22;;;3.73;58.32
17607;BME280;69222;52.242;20.980;2024-03-07T00:15:57;101373.06;;;3.72;58.57
17607;BME280;69222;52.242;20.980;2024-03-07T00:18:25;101383.25;;;3.72;59.25
17607;BME280;69222;52.242;20.980;2024-03-07T00:20:54;101373.13;;;3.73;59.09
17607;BME280;69222;52.242;20.980;2024-03-07T00:23:22;101378.34;;;3.76;59.46
17607;BME280;69222;52.242;20.980;2024-03-07T00:25:50;101379.09;;;3.74;59.63
17607;BME280;69222;52.242;20.980;2024-03-07T00:28:18;101373.00;;;3.70;59.70
17607;BME280;69222;52.242;20.980;2024-03-07T00:30:48;101377.06;;;3.65;59.38
17607;BME280;69222;52.242;20.980;2024-03-07T00:33:16;101370.13;;;3.61;58.98
17607;BME280;69222;52.242;20.980;2024-03-07T00:35:48;101364.72;;;3.53;59.38
17607;BME280;69222;52.242;20.980;2024-03-07T00:38:16;101376.59;;;3.53;59.47
17607;BME280;69222;52.242;20.980;2024-03-07T00:40:45;101370.50;;;3.49;59.54
17607;BME280;69222;52.242;20.980;2024-03-07T00:43:14;101373.75;;;3.45;59.80
17607;BME280;69222;52.242;20.980;2024-03-07T00:45:43;101371.16;;;3.44;59.68
17607;BME280;69222;52.242;20.980;2024-03-07T00:48:13;101365.94;;;3.41;59.97
17607;BME280;69222;52.242;20.980;2024-03-07T00:50:41;101372.03;;;3.44;59.77
17607;BME280;69222;52.242;20.980;2024-03-07T00:53:09;101369.44;;;3.43;60.13
17607;BME280;69222;52.242;20.980;2024-03-07T00:55:37;101364.94;;;3.37;59.87
17607;BME280;69222;52.242;20.980;2024-03-07T00:58:05;101369.19;;;3.36;59.66
17607;BME280;69222;52.242;20.980;2024-03-07T01:00:33;101357.75;;;3.27;59.79
17607;BME280;69222;52.242;20.980;2024-03-07T01:03:02;101367.75;;;3.22;60.52
17607;BME280;69222;52.242;20.980;2024-03-07T01:05:31;101368.47;;;3.18;59.88
17607;BME280;69222;52.242;20.980;2024-03-07T01:07:59;101369.28;;;3.17;60.60
17607;BME280;69222;52.242;20.980;2024-03-07T01:10:27;101366.59;;;3.14;60.70
17607;BME280;69222;52.242;20.980;2024-03-07T01:12:55;101366.53;;;3.12;60.43
17607;BME280;69222;52.242;20.980;2024-03-07T01:15:28;101364.88;;;3.13;60.96
17607;BME280;69222;52.242;20.980;2024-03-07T01:17:56;101370.81;;;3.13;60.51
17607;BME280;69222;52.242;20.980;2024-03-07T01:20:24;101367.28;;;3.10;60.63
17607;BME280;69222;52.242;20.980;2024-03-07T01:22:53;101384.84;;;3.04;60.87
17607;BME280;69222;52.242;20.980;2024-03-07T01:25:23;101374.31;;;2.95;61.36
17607;BME280;69222;52.242;20.980;2024-03-07T01:27:51;101374.91;;;2.89;61.58
17607;BME280;69222;52.242;20.980;2024-03-07T01:30:19;101380.69;;;2.85;61.72
17607;BME280;69222;52.242;20.980;2024-03-07T01:32:50;101373.66;;;2.79;61.83
17607;BME280;69222;52.242;20.980;2024-03-07T01:35:18;101374.34;;;2.75;62.24
17607;BME280;69222;52.242;20.980;2024-03-07T01:37:46;101386.06;;;2.72;61.78
17607;BME280;69222;52.242;20.980;2024-03-07T01:40:15;101386.03;;;2.70;61.83
17607;BME280;69222;52.242;20.980;2024-03-07T01:42:46;101379.06;;;2.66;61.96
17607;BME280;69222;52.242;20.980;2024-03-07T01:45:15;101385.88;;;2.67;62.98
17607;BME280;69222;52.242;20.980;2024-03-07T01:47:43;101382.34;;;2.63;63.13
17607;BME280;69222;52.242;20.980;2024-03-07T01:50:14;101386.28;;;2.57;62.47
17607;BME280;69222;52.242;20.980;2024-03-07T01:52:42;101384.28;;;2.50;63.13
17607;BME280;69222;52.242;20.980;2024-03-07T01:55:11;101385.06;;;2.47;62.86
17607;BME280;69222;52.242;20.980;2024-03-07T01:57:42;101384.16;;;2.47;63.99
17607;BME280;69222;52.242;20.980;2024-03-07T02:00:11;101385.25;;;2.52;64.04
17607;BME280;69222;52.242;20.980;2024-03-07T02:02:39;101382.03;;;2.56;63.47
17607;BME280;69222;52.242;20.980;2024-03-07T02:05:09;101384.72;;;2.59;64.09
17607;BME280;69222;52.242;20.980;2024-03-07T02:07:37;101381.06;;;2.54;63.75
17607;BME280;69222;52.242;20.980;2024-03-07T02:10:06;101391.06;;;2.49;63.11
17607;BME280;69222;52.242;20.980;2024-03-07T02:12:35;101386.59;;;2.44;64.08
17607;BME280;69222;52.242;20.980;2024-03-07T02:15:06;101380.66;;;2.43;63.72
17607;BME280;69222;52.242;20.980;2024-03-07T02:17:34;101378.16;;;2.45;63.71
17607;BME280;69222;52.242;20.980;2024-03-07T02:20:04;101373.97;;;2.47;63.97
17607;BME280;69222;52.242;20.980;2024-03-07T02:22:36;101379.06;;;2.47;63.93
17607;BME280;69222;52.242;20.980;2024-03-07T02:25:04;101373.59;;;2.37;64.27
17607;BME280;69222;52.242;20.980;2024-03-07T02:27:33;101378.41;;;2.31;64.78
17607;BME280;69222;52.242;20.980;2024-03-07T02:30:01;101378.97;;;2.24;64.07
17607;BME280;69222;52.242;20.980;2024-03-07T02:32:31;101386.47;;;2.21;64.52
17607;BME280;69222;52.242;20.980;2024-03-07T02:34:59;101381.13;;;2.15;64.95
17607;BME280;69222;52.242;20.980;2024-03-07T02:37:27;101385.25;;;2.13;65.33
17607;BME280;69222;52.242;20.980;2024-03-07T02:39:57;101382.31;;;2.04;65.00
17607;BME280;69222;52.242;20.980;2024-03-07T02:42:25;101386.97;;;1.94;65.16
17607;BME280;69222;52.242;20.980;2024-03-07T02:44:53;101388.41;;;1.88;65.05
17607;BME280;69222;52.242;20.980;2024-03-07T02:47:21;101386.22;;;1.78;65.25
17607;BME280;69222;52.242;20.980;2024-03-07T02:49:50;101396.03;;;1.70;66.66
17607;BME280;69222;52.242;20.980;2024-03-07T02:52:18;101392.41;;;1.65;66.10
17607;BME280;69222;52.242;20.980;2024-03-07T02:54:46;101389.59;;;1.59;66.74
17607;BME280;69222;52.242;20.980;2024-03-07T02:57:15;101388.59;;;1.55;66.27
17607;BME280;69222;52.242;20.980;2024-03-07T02:59:43;101388.34;;;1.51;67.58
17607;BME280;69222;52.242;20.980;2024-03-07T03:02:11;101392.22;;;1.42;67.41
17607;BME280;69222;52.242;20.980;2024-03-07T03:04:39;101385.09;;;1.35;67.25
17607;BME280;69222;52.242;20.980;2024-03-07T03:07:07;101388.28;;;1.31;67.97
17607;BME280;69222;52.242;20.980;2024-03-07T03:09:35;101389.81;;;1.28;68.11
17607;BME280;69222;52.242;20.980;2024-03-07T03:12:06;101387.94;;;1.24;68.21
17607;BME280;69222;52.242;20.980;2024-03-07T03:14:36;101391.94;;;1.18;69.23
17607;BME280;69222;52.242;20.980;2024-03-07T03:17:05;101390.25;;;1.19;68.48
17607;BME280;69222;52.242;20.980;2024-03-07T03:19:35;101401.28;;;1.19;69.20
17607;BME280;69222;52.242;20.980;2024-03-07T03:22:04;101398.75;;;1.19;69.17
17607;BME280;69222;52.242;20.980;2024-03-07T03:24:32;101401.22;;;1.18;69.39
17607;BME280;69222;52.242;20.980;2024-03-07T03:27:00;101389.38;;;1.18;69.30
17607;BME280;69222;52.242;20.980;2024-03-07T03:29:28;101394.47;;;1.18;69.47
17607;BME280;69222;52.242;20.980;2024-03-07T03:31:58;101395.91;;;1.13;69.35
17607;BME280;69222;52.242;20.980;2024-03-07T03:34:26;101398.94;;;1.06;69.28
17607;BME280;69222;52.242;20.980;2024-03-07T03:36:54;101411.41;;;1.02;69.26
17607;BME280;69222;52.242;20.980;2024-03-07T03:39:23;101399.91;;;0.92;69.98
17607;BME280;69222;52.242;20.980;2024-03-07T03:41:51;101407.31;;;0.87;70.00
17607;BME280;69222;52.242;20.980;2024-03-07T03:44:19;101412.09;;;0.81;70.51
17607;BME280;69222;52.242;20.980;2024-03-07T03:46:47;101417.09;;;0.80;70.57
17607;BME280;69222;52.242;20.980;2024-03-07T03:49:17;101411.09;;;0.78;70.95
17607;BME280;69222;52.242;20.980;2024-03-07T03:51:45;101408.59;;;0.79;71.07
17607;BME280;69222;52.242;20.980;2024-03-07T03:54:14;101408.44;;;0.76;70.29
17607;BME280;69222;52.242;20.980;2024-03-07T03:56:42;101412.22;;;0.66;70.63
17607;BME280;69222;52.242;20.980;2024-03-07T03:59:10;101412.59;;;0.58;71.82
17607;BME280;69222;52.242;20.980;2024-03-07T04:01:38;101416.75;;;0.56;71.74
17607;BME280;69222;52.242;20.980;2024-03-07T04:04:08;101414.97;;;0.55;71.93
17607;BME280;69222;52.242;20.980;2024-03-07T04:06:38;101407.53;;;0.58;72.66
17607;BME280;69222;52.242;20.980;2024-03-07T04:09:06;101413.72;;;0.63;72.11
17607;BME280;69222;52.242;20.980;2024-03-07T04:11:34;101416.25;;;0.63;72.31
17607;BME280;69222;52.242;20.980;2024-03-07T04:14:03;101412.91;;;0.64;72.20
17607;BME280;69222;52.242;20.980;2024-03-07T04:16:31;101413.78;;;0.64;72.85
17607;BME280;69222;52.242;20.980;2024-03-07T04:19:00;101414.59;;;0.63;72.30
17607;BME280;69222;52.242;20.980;2024-03-07T04:21:28;101410.38;;;0.64;72.88
17607;BME280;69222;52.242;20.980;2024-03-07T04:23:57;101411.47;;;0.69;73.28
17607;BME280;69222;52.242;20.980;2024-03-07T04:26:25;101410.66;;;0.70;72.76
17607;BME280;69222;52.242;20.980;2024-03-07T04:28:54;101403.81;;;0.67;72.67
17607;BME280;69222;52.242;20.980;2024-03-07T04:31:22;101412.22;;;0.66;72.64
17607;BME280;69222;52.242;20.980;2024-03-07T04:33:50;101404.50;;;0.65;72.70
17607;BME280;69222;52.242;20.980;2024-03-07T04:36:18;101412.75;;;0.61;72.49
17607;BME280;69222;52.242;20.980;2024-03-07T04:38:47;101412.84;;;0.46;72.76
17607;BME280;69222;52.242;20.980;2024-03-07T04:41:16;101414.19;;;0.39;72.84
17607;BME280;69222;52.242;20.980;2024-03-07T04:43:45;101414.66;;;0.32;73.03
17607;BME280;69222;52.242;20.980;2024-03-07T04:46:13;101416.28;;;0.30;73.73
17607;BME280;69222;52.242;20.980;2024-03-07T04:48:40;101415.16;;;0.25;73.16
17607;BME280;69222;52.242;20.980;2024-03-07T04:51:09;101420.84;;;0.21;73.98
17607;BME280;69222;52.242;20.980;2024-03-07T04:53:37;101425.84;;;0.19;73.89
17607;BME280;69222;52.242;20.980;2024-03-07T04:56:08;101423.84;;;0.14;73.65
17607;BME280;69222;52.242;20.980;2024-03-07T04:58:38;101424.41;;;0.08;74.29
17607;BME280;69222;52.242;20.980;2024-03-07T05:01:06;101429.16;;;0.02;74.27
17607;BME280;69222;52.242;20.980;2024-03-07T05:03:34;101424.47;;;-0.07;74.47
17607;BME280;69222;52.242;20.980;2024-03-07T05:06:02;101432.69;;;-0.11;74.53
17607;BME280;69222;52.242;20.980;2024-03-07T05:08:31;101432.44;;;-0.15;75.05
17607;BME280;69222;52.242;20.980;2024-03-07T05:11:00;101430.63;;;-0.18;75.13
17607;BME280;69222;52.242;20.980;2024-03-07T05:13:28;101427.47;;;-0.14;75.72
17607;BME280;69222;52.242;20.980;2024-03-07T05:15:57;101430.75;;;-0.15;75.51
17607;BME280;69222;52.242;20.980;2024-03-07T05:18:26;101432.44;;;-0.15;75.90
17607;BME280;69222;52.242;20.980;2024-03-07T05:20:54;101438.47;;;-0.13;75.70
17607;BME280;69222;52.242;20.980;2024-03-07T05:23:22;101438.63;;;-0.10;76.12
17607;BME280;69222;52.242;20.980;2024-03-07T05:25:51;101443.69;;;-0.10;75.61
17607;BME280;69222;52.242;20.980;2024-03-07T05:28:19;101444.63;;;-0.08;75.65
17607;BME280;69222;52.242;20.980;2024-03-07T05:30:46;101448.13;;;-0.06;75.82
17607;BME280;69222;52.242;20.980;2024-03-07T05:33:17;101451.72;;;-0.03;75.75
17607;BME280;69222;52.242;20.980;2024-03-07T05:35:47;101446.66;;;-0.03;75.58
17607;BME280;69222;52.242;20.980;2024-03-07T05:38:16;101450.13;;;-0.01;75.86
17607;BME280;69222;52.242;20.980;2024-03-07T05:40:45;101452.66;;;-0.01;75.46
17607;BME280;69222;52.242;20.980;2024-03-07T05:43:14;101452.03;;;0.04;75.55
17607;BME280;69222;52.242;20.980;2024-03-07T05:45:42;101452.19;;;0.07;75.76
17607;BME280;69222;52.242;20.980;2024-03-07T05:48:14;101455.53;;;0.06;74.94
17607;BME280;69222;52.242;20.980;2024-03-07T05:50:45;101450.44;;;0.06;75.51
17607;BME280;69222;52.242;20.980;2024-03-07T05:53:13;101454.88;;;0.10;74.82
17607;BME280;69222;52.242;20.980;2024-03-07T05:55:42;101458.41;;;0.12;74.82
17607;BME280;69222;52.242;20.980;2024-03-07T05:58:10;101458.41;;;0.12;74.88
17607;BME280;69222;52.242;20.980;2024-03-07T06:00:39;101449.91;;;0.11;74.98
17607;BME280;69222;52.242;20.980;2024-03-07T06:03:07;101449.03;;;0.11;74.70
17607;BME280;69222;52.242;20.980;2024-03-07T06:05:35;101452.47;;;0.11;73.90
17607;BME280;69222;52.242;20.980;2024-03-07T06:08:05;101455.75;;;0.10;73.90
17607;BME280;69222;52.242;20.980;2024-03-07T06:10:34;101462.66;;;0.13;74.09
17607;BME280;69222;52.242;20.980;2024-03-07T06:13:02;101461.78;;;0.12;74.37
17607;BME280;69222;52.242;20.980;2024-03-07T06:15:38;101453.56;;;0.16;74.61
17607;BME280;69222;52.242;20.980;2024-03-07T06:18:06;101450.06;;;0.14;74.63
17607;BME280;69222;52.242;20.980;2024-03-07T06:20:38;101456.31;;;0.21;74.33
17607;BME280;69222;52.242;20.980;2024-03-07T06:23:09;101454.59;;;0.20;73.39
17607;BME280;69222;52.242;20.980;2024-03-07T06:25:38;101461.41;;;0.21;73.80
17607;BME280;69222;52.242;20.980;2024-03-07T06:28:14;101462.19;;;0.20;73.05
17607;BME280;69222;52.242;20.980;2024-03-07T06:30:43;101465.66;;;0.22;73.32
17607;BME280;69222;52.242;20.980;2024-03-07T06:33:13;101467.59;;;0.26;73.55
17607;BME280;69222;52.242;20.980;2024-03-07T06:35:43;101466.00;;;0.28;73.55
17607;BME280;69222;52.242;20.980;2024-03-07T06:38:13;101469.75;;;0.35;73.63
17607;BME280;69222;52.242;20.980;2024-03-07T06:40:41;101468.88;;;0.34;72.81
17607;BME280;69222;52.242;20.980;2024-03-07T06:43:10;101460.41;;;0.34;72.29
17607;BME280;69222;52.242;20.980;2024-03-07T06:45:39;101462.75;;;0.31;73.16
17607;BME280;69222;52.242;20.980;2024-03-07T06:48:08;101459.66;;;0.36;73.05
17607;BME280;69222;52.242;20.980;2024-03-07T06:50:37;101471.97;;;0.45;72.43
17607;BME280;69222;52.242;20.980;2024-03-07T06:53:06;101460.78;;;0.58;72.57
17607;BME280;69222;52.242;20.980;2024-03-07T06:55:36;101460.00;;;0.75;72.06
17607;BME280;69222;52.242;20.980;2024-03-07T06:58:05;101456.94;;;0.99;70.13
17607;BME280;69222;52.242;20.980;2024-03-07T07:00:33;101457.44;;;1.26;69.33
17607;BME280;69222;52.242;20.980;2024-03-07T07:03:04;101456.16;;;1.52;68.21
17607;BME280;69222;52.242;20.980;2024-03-07T07:05:33;101451.78;;;1.67;67.64
17607;BME280;69222;52.242;20.980;2024-03-07T07:08:03;101453.06;;;1.94;67.47
17607;BME280;69222;52.242;20.980;2024-03-07T07:10:32;101464.94;;;2.13;65.77
17607;BME280;69222;52.242;20.980;2024-03-07T07:13:02;101456.69;;;2.37;65.81
17607;BME280;69222;52.242;20.980;2024-03-07T07:15:31;101457.81;;;2.63;64.31
17607;BME280;69222;52.242;20.980;2024-03-07T07:18:00;101459.94;;;2.93;63.95
17607;BME280;69222;52.242;20.980;2024-03-07T07:20:29;101460.41;;;3.24;61.45
17607;BME280;69222;52.242;20.980;2024-03-07T07:22:57;101464.75;;;3.48;61.49
17607;BME280;69222;52.242;20.980;2024-03-07T07:25:27;101457.88;;;3.68;58.50
17607;BME280;69222;52.242;20.980;2024-03-07T07:27:55;101460.63;;;3.72;58.39
17607;BME280;69222;52.242;20.980;2024-03-07T07:30:25;101453.13;;;3.77;57.66
17607;BME280;69222;52.242;20.980;2024-03-07T07:32:54;101455.63;;;3.75;57.52
17607;BME280;69222;52.242;20.980;2024-03-07T07:35:22;101459.16;;;3.79;57.06
17607;BME280;69222;52.242;20.980;2024-03-07T07:37:52;101450.56;;;3.98;57.86
17607;BME280;69222;52.242;20.980;2024-03-07T07:40:23;101457.69;;;4.53;56.49
17607;BME280;69222;52.242;20.980;2024-03-07T07:42:54;101446.22;;;5.17;53.48
17607;BME280;69222;52.242;20.980;2024-03-07T07:45:23;101453.09;;;5.99;49.62
17607;BME280;69222;52.242;20.980;2024-03-07T07:47:53;101448.50;;;6.47;48.84
17607;BME280;69222;52.242;20.980;2024-03-07T07:50:23;101447.06;;;6.89;45.59
17607;BME280;69222;52.242;20.980;2024-03-07T07:52:52;101443.38;;;6.77;44.83
17607;BME280;69222;52.242;20.980;2024-03-07T07:55:22;101447.50;;;7.06;46.00
17607;BME280;69222;52.242;20.980;2024-03-07T07:57:51;101448.97;;;7.31;45.01
17607;BME280;69222;52.242;20.980;2024-03-07T08:00:22;101447.09;;;7.60;44.17
17607;BME280;69222;52.242;20.980;2024-03-07T08:02:53;101437.44;;;7.48;43.05
17607;BME280;69222;52.242;20.980;2024-03-07T08:05:24;101444.88;;;7.75;44.71
17607;BME280;69222;52.242;20.980;2024-03-07T08:07:55;101438.66;;;8.44;41.98
17607;BME280;69222;52.242;20.980;2024-03-07T08:10:24;101446.03;;;8.73;40.38
17607;BME280;69222;52.242;20.980;2024-03-07T08:12:55;101432.50;;;8.81;41.32
17607;BME280;69222;52.242;20.980;2024-03-07T08:15:25;101440.63;;;8.57;40.29
17607;BME280;69222;52.242;20.980;2024-03-07T08:17:57;101440.72;;;8.21;40.11
17607;BME280;69222;52.242;20.980;2024-03-07T08:20:26;101442.75;;;7.95;41.29
17607;BME280;69222;52.242;20.980;2024-03-07T08:22:55;101437.09;;;7.70;42.17
17607;BME280;69222;52.242;20.980;2024-03-07T08:25:25;101441.91;;;7.58;42.45
17607;BME280;69222;52.242;20.980;2024-03-07T08:27:55;101446.59;;;7.76;44.39
17607;BME280;69222;52.242;20.980;2024-03-07T08:30:25;101446.41;;;8.06;41.94
17607;BME280;69222;52.242;20.980;2024-03-07T08:32:57;101443.13;;;8.13;41.58
17607;BME280;69222;52.242;20.980;2024-03-07T08:35:29;101444.69;;;8.05;40.75
17607;BME280;69222;52.242;20.980;2024-03-07T08:37:57;101440.88;;;7.50;41.39
17607;BME280;69222;52.242;20.980;2024-03-07T08:40:28;101447.59;;;7.10;42.80
17607;BME280;69222;52.242;20.980;2024-03-07T08:43:00;101446.53;;;7.02;43.64
17607;BME280;69222;52.242;20.980;2024-03-07T08:45:29;101444.72;;;6.98;43.17
17607;BME280;69222;52.242;20.980;2024-03-07T08:48:03;101441.59;;;6.76;42.89
17607;BME280;69222;52.242;20.980;2024-03-07T08:50:32;101445.06;;;6.45;44.11
17607;BME280;69222;52.242;20.980;2024-03-07T08:53:02;101440.06;;;6.50;44.79
17607;BME280;69222;52.242;20.980;2024-03-07T08:55:31;101442.78;;;6.56;45.13
17607;BME280;69222;52.242;20.980;2024-03-07T08:57:59;101450.09;;;6.74;44.56
17607;BME280;69222;52.242;20.980;2024-03-07T09:00:27;101439.50;;;6.93;44.30
17607;BME280;69222;52.242;20.980;2024-03-07T09:02:56;101436.94;;;6.93;44.60
17607;BME280;69222;52.242;20.980;2024-03-07T09:05:30;101434.28;;;6.90;44.12
17607;BME280;69222;52.242;20.980;2024-03-07T09:08:01;101441.81;;;6.84;43.59
17607;BME280;69222;52.242;20.980;2024-03-07T09:10:30;101433.50;;;6.93;44.61
17607;BME280;69222;52.242;20.980;2024-03-07T09:12:58;101436.16;;;6.96;43.76
17607;BME280;69222;52.242;20.980;2024-03-07T09:15:26;101435.31;;;6.64;42.91
17607;BME280;69222;52.242;20.980;2024-03-07T09:17:55;101428.56;;;6.36;44.32
17607;BME280;69222;52.242;20.980;2024-03-07T09:20:25;101427.41;;;5.96;44.26
17607;BME280;69222;52.242;20.980;2024-03-07T09:22:55;101427.78;;;5.81;45.17
17607;BME280;69222;52.242;20.980;2024-03-07T09:25:23;101429.88;;;5.66;45.68
17607;BME280;69222;52.242;20.980;2024-03-07T09:27:52;101421.94;;;5.56;45.20
17607;BME280;69222;52.242;20.980;2024-03-07T09:30:22;101433.56;;;5.47;45.35
17607;BME280;69222;52.242;20.980;2024-03-07T09:32:53;101427.53;;;5.18;44.68
17607;BME280;69222;52.242;20.980;2024-03-07T09:35:23;101432.63;;;4.92;45.26
17607;BME280;69222;52.242;20.980;2024-03-07T09:37:51;101433.97;;;4.81;46.53
17607;BME280;69222;52.242;20.980;2024-03-07T09:40:22;101437.22;;;4.77;46.26
17607;BME280;69222;52.242;20.980;2024-03-07T09:42:54;101441.50;;;4.78;46.84
17607;BME280;69222;52.242;20.980;2024-03-07T09:45:29;101437.00;;;4.71;46.78
17607;BME280;69222;52.242;20.980;2024-03-07T09:47:58;101440.00;;;4.59;46.80
17607;BME280;69222;52.242;20.980;2024-03-07T09:50:29;101438.75;;;4.48;46.39
17607;BME280;69222;52.242;20.980;2024-03-07T09:52:58;101435.22;;;4.44;46.17
17607;BME280;69222;52.242;20.980;2024-03-07T09:55:28;101435.94;;;4.40;47.07
17607;BME280;69222;52.242;20.980;2024-03-07T09:57:58;101422.44;;;4.43;46.98
17607;BME280;69222;52.242;20.980;2024-03-07T10:00:27;101436.34;;;4.52;46.61
17607;BME280;69222;52.242;20.980;2024-03-07T10:02:58;101435.59;;;4.55;46.87
17607;BME280;69222;52.242;20.980;2024-03-07T10:05:27;101438.44;;;4.63;45.90
17607;BME280;69222;52.242;20.980;2024-03-07T10:07:56;101430.31;;;4.74;45.72
17607;BME280;69222;52.242;20.980;2024-03-07T10:10:24;101422.66;;;4.74;46.32
17607;BME280;69222;52.242;20.980;2024-03-07T10:12:54;101421.75;;;4.72;46.34
17607;BME280;69222;52.242;20.980;2024-03-07T10:15:28;101429.47;;;4.74;46.36
17607;BME280;69222;52.242;20.980;2024-03-07T10:17:56;101422.06;;;4.81;46.66
17607;BME280;69222;52.242;20.980;2024-03-07T10:20:24;101425.09;;;4.95;45.80
17607;BME280;69222;52.242;20.980;2024-03-07T10:22:52;101424.72;;;5.10;45.57
17607;BME280;69222;52.242;20.980;2024-03-07T10:25:20;101423.69;;;5.30;44.73
17607;BME280;69222;52.242;20.980;2024-03-07T10:27:51;101420.78;;;5.47;43.94
17607;BME280;69222;52.242;20.980;2024-03-07T10:30:21;101419.72;;;5.67;44.27
17607;BME280;69222;52.242;20.980;2024-03-07T10:32:52;101424.47;;;5.84;43.94
17607;BME280;69222;52.242;20.980;2024-03-07T10:35:23;101420.34;;;5.89;43.91
17607;BME280;69222;52.242;20.980;2024-03-07T10:37:52;101417.84;;;5.90;44.70
17607;BME280;69222;52.242;20.980;2024-03-07T10:40:21;101420.44;;;5.92;43.82
17607;BME280;69222;52.242;20.980;2024-03-07T10:42:56;101420.97;;;5.81;44.06
17607;BME280;69222;52.242;20.980;2024-03-07T10:45:28;101413.69;;;5.65;44.23
17607;BME280;69222;52.242;20.980;2024-03-07T10:47:58;101413.34;;;5.54;44.48
17607;BME280;69222;52.242;20.980;2024-03-07T10:50:39;101415.41;;;5.38;44.37
17607;BME280;69222;52.242;20.980;2024-03-07T10:53:24;101415.72;;;5.21;45.00
17607;BME280;69222;52.242;20.980;2024-03-07T10:56:04;101422.28;;;5.13;45.10
17607;BME280;69222;52.242;20.980;2024-03-07T10:58:46;101412.94;;;5.15;45.38
17607;BME280;69222;52.242;20.980;2024-03-07T11:01:19;101400.69;;;5.30;45.35
17607;BME280;69222;52.242;20.980;2024-03-07T11:03:48;101403.47;;;5.65;46.14
17607;BME280;69222;52.242;20.980;2024-03-07T11:06:19;101411.25;;;5.97;43.52
17607;BME280;69222;52.242;20.980;2024-03-07T11:08:48;101402.41;;;6.16;43.33
17607;BME280;69222;52.242;20.980;2024-03-07T11:11:18;101406.44;;;6.38;42.59
17607;BME280;69222;52.242;20.980;2024-03-07T11:13:46;101408.84;;;6.63;42.53
17607;BME280;69222;52.242;20.980;2024-03-07T11:16:18;101397.41;;;6.84;42.42
17607;BME280;69222;52.242;20.980;2024-03-07T11:19:17;101402.00;;;6.97;40.66
17607;BME280;69222;52.242;20.980;2024-03-07T11:21:48;101402.69;;;6.90;41.34
17607;BME280;69222;52.242;20.980;2024-03-07T11:24:23;101398.31;;;6.86;41.72
17607;BME280;69222;52.242;20.980;2024-03-07T11:26:52;101397.63;;;6.93;40.88
17607;BME280;69222;52.242;20.980;2024-03-07T11:29:46;101389.97;;;6.94;41.35
17607;BME280;69222;52.242;20.980;2024-03-07T11:32:22;101385.09;;;7.04;41.32
17607;BME280;69222;52.242;20.980;2024-03-07T11:34:53;101383.06;;;7.26;40.76
17607;BME280;69222;52.242;20.980;2024-03-07T11:37:37;101386.19;;;7.51;39.59
17607;BME280;69222;52.242;20.980;2024-03-07T11:40:09;101386.13;;;7.48;40.21
17607;BME280;69222;52.242;20.980;2024-03-07T11:42:46;101386.09;;;7.46;39.47
17607;BME280;69222;52.242;20.980;2024-03-07T11:45:18;101382.66;;;7.46;39.94
17607;BME280;69222;52.242;20.980;2024-03-07T11:47:55;101383.03;;;7.63;40.43
17607;BME280;69222;52.242;20.980;2024-03-07T11:50:28;101380.72;;;7.73;39.43
17607;BME280;69222;52.242;20.980;2024-03-07T11:52:56;101376.31;;;7.68;39.63
17607;BME280;69222;52.242;20.980;2024-03-07T11:55:24;101376.28;;;7.66;39.91
17607;BME280;69222;52.242;20.980;2024-03-07T11:57:55;101379.47;;;7.56;39.75
17607;BME280;69222;52.242;20.980;2024-03-07T12:00:23;101361.06;;;7.74;40.29
17607;BME280;69222;52.242;20.980;2024-03-07T12:02:59;101369.94;;;7.91;40.44
17607;BME280;69222;52.242;20.980;2024-03-07T12:05:27;101362.66;;;8.11;39.85
17607;BME280;69222;52.242;20.980;2024-03-07T12:07:56;101359.97;;;8.05;39.17
17607;BME280;69222;52.242;20.980;2024-03-07T12:10:24;101365.88;;;8.01;38.79
17607;BME280;69222;52.242;20.980;2024-03-07T12:12:52;101361.91;;;8.17;40.15
17607;BME280;69222;52.242;20.980;2024-03-07T12:15:23;101368.09;;;8.27;38.98
17607;BME280;69222;52.242;20.980;2024-03-07T12:17:51;101359.53;;;8.28;38.32
17607;BME280;69222;52.242;20.980;2024-03-07T12:20:21;101363.34;;;8.45;39.03
17607;BME280;69222;52.242;20.980;2024-03-07T12:22:58;101365.25;;;8.57;38.11
17607;BME280;69222;52.242;20.980;2024-03-07T12:25:28;101349.66;;;8.46;38.10
17607;BME280;69222;52.242;20.980;2024-03-07T12:28:05;101348.66;;;8.39;38.42
17607;BME280;69222;52.242;20.980;2024-03-07T12:30:48;101350.34;;;8.37;38.47
17607;BME280;69222;52.242;20.980;2024-03-07T12:33:20;101343.00;;;8.57;39.17
17607;BME280;69222;52.242;20.980;2024-03-07T12:35:54;101345.88;;;8.76;37.93
17607;BME280;69222;52.242;20.980;2024-03-07T12:38:30;101346.59;;;8.65;37.79
17607;BME280;69222;52.242;20.980;2024-03-07T12:41:04;101340.28;;;8.48;38.13
17607;BME280;69222;52.242;20.980;2024-03-07T12:43:40;101346.19;;;8.44;37.17
17607;BME280;69222;52.242;20.980;2024-03-07T12:46:10;101334.72;;;8.27;36.93
17607;BME280;69222;52.242;20.980;2024-03-07T12:48:40;101340.34;;;8.07;37.86
17607;BME280;69222;52.242;20.980;2024-03-07T12:51:15;101345.41;;;8.04;37.59
17607;BME280;69222;52.242;20.980;2024-03-07T12:53:47;101341.13;;;8.05;38.13
17607;BME280;69222;52.242;20.980;2024-03-07T12:56:15;101342.00;;;8.05;38.04
17607;BME280;69222;52.242;20.980;2024-03-07T12:58:45;101329.28;;;8.11;38.80
17607;BME280;69222;52.242;20.980;2024-03-07T13:01:14;101339.88;;;8.28;37.97
17607;BME280;69222;52.242;20.980;2024-03-07T13:03:46;101332.34;;;8.36;37.99